.
WxDataArchive / Data Records for 2012-05-07
2012-05-06 May 2012 2012-05-08

Data Records for Monday, 07 May 2012

Time	Temp	Chill	HIndex	Humid	Dewpt	 Wind 	HiWind	WindDir	Rain 	Barom 
-----	----	-----	------	-----	-----	------	------	-------	-----	----- 
00:00	59.5	59.5	59.5	33	30.4	3	9	90	0.00	29.890 
00:05	59.3	59.3	59.3	32	29.4	3	5	90	0.00	29.890 
00:10	59.2	59.2	59.2	32	29.4	3	9	90	0.00	29.890 
00:15	59.2	59.2	59.2	32	29.4	3	6	90	0.00	29.891 
00:20	59.2	59.2	59.2	35	31.6	1	8	90	0.00	29.891 
00:25	59.0	59.0	59.0	34	30.7	1	2	90	0.00	29.891 
00:30	58.9	58.9	58.9	33	29.9	1	6	90	0.00	29.912 
00:35	58.9	58.9	58.9	35	31.3	0	3	90	0.00	29.912 
00:40	58.9	58.9	58.9	33	29.9	1	4	90	0.00	29.912 
00:45	58.9	58.9	58.9	34	30.6	1	5	90	0.00	29.916 
00:50	58.9	58.9	58.9	34	30.6	1	3	90	0.00	29.916 
00:55	58.9	58.9	58.9	35	31.3	0	3	90	0.00	29.916 
01:00	58.7	58.7	58.7	37	32.5	0	2	90	0.00	29.931 
01:05	58.7	58.7	58.7	36	31.8	1	3	90	0.00	29.931 
01:10	58.7	58.7	58.7	37	32.5	1	5	90	0.00	29.931 
01:15	58.7	58.7	58.7	38	33.2	1	3	90	0.00	29.917 
01:20	58.6	58.6	58.6	39	33.7	0	3	90	0.00	29.917 
01:25	58.6	58.6	58.6	41	35.0	0	2	90	0.00	29.917 
01:30	58.4	58.4	58.4	39	33.5	1	3	90	0.00	29.916 
01:35	58.4	58.4	58.4	38	32.9	2	7	68	0.00	29.916 
01:40	58.4	58.4	58.4	37	32.2	1	4	90	0.00	29.916 
01:45	58.4	58.4	58.4	38	32.9	1	4	90	0.00	29.910 
01:50	58.4	58.4	58.4	37	32.2	1	5	112	0.00	29.910 
01:55	58.4	58.4	58.4	36	31.6	2	4	112	0.00	29.910 
02:00	58.3	58.3	58.3	39	33.5	1	3	68	0.00	29.902 
02:05	58.1	58.1	58.1	37	32.0	1	2	90	0.00	29.902 
02:10	58.1	58.1	58.1	35	30.6	2	5	90	0.00	29.902 
02:15	58.1	58.1	58.1	36	31.3	2	6	112	0.00	29.895 
02:20	58.3	58.3	58.3	36	31.5	2	5	90	0.00	29.895 
02:25	58.3	58.3	58.3	36	31.5	2	5	90	0.00	29.895 
02:30	58.3	58.3	58.3	35	30.8	2	5	90	0.00	29.896 
02:35	58.3	58.3	58.3	36	31.5	2	5	90	0.00	29.896 
02:40	58.3	58.3	58.3	36	31.5	1	5	90	0.00	29.896 
02:45	58.3	58.3	58.3	37	32.1	1	4	112	0.00	29.886 
02:50	58.3	58.3	58.3	38	32.8	1	4	112	0.00	29.886 
02:55	58.3	58.3	58.3	38	32.8	1	3	112	0.00	29.886 
03:00	58.3	58.3	58.3	39	33.5	1	5	112	0.00	29.880 
03:05	58.3	58.3	58.3	38	32.8	2	5	112	0.00	29.880 
03:10	58.1	58.1	58.1	39	33.3	1	4	90	0.00	29.880 
03:15	58.1	58.1	58.1	39	33.3	1	3	90	0.00	29.869 
03:20	58.0	58.0	58.0	41	34.4	1	4	90	0.00	29.869 
03:25	57.8	57.8	57.8	42	34.9	1	3	90	0.00	29.869 
03:30	57.6	57.6	57.6	43	35.3	1	4	90	0.00	29.858 
03:35	57.5	57.5	57.5	44	35.8	1	4	90	0.00	29.858 
03:40	57.5	57.5	57.5	44	35.8	1	5	90	0.00	29.858 
03:45	57.5	57.5	57.5	45	36.3	1	4	90	0.00	29.853 
03:50	57.5	57.5	57.5	46	36.9	1	3	90	0.00	29.853 
03:55	57.5	57.5	57.5	46	36.9	2	4	112	0.00	29.853 
04:00	57.6	57.6	57.6	48	38.1	1	5	68	0.00	29.852 
04:05	57.5	57.5	57.5	49	38.5	2	6	112	0.00	29.852 
04:10	57.5	57.5	57.5	50	39.0	2	5	112	0.00	29.852 
04:15	57.5	57.5	57.5	51	39.5	2	4	90	0.00	29.846 
04:20	57.5	57.5	57.5	51	39.5	2	7	90	0.00	29.846 
04:25	57.5	57.5	57.5	52	40.0	2	7	68	0.00	29.846 
04:30	57.5	57.5	57.5	53	40.5	2	5	90	0.00	29.836 
04:35	57.5	57.5	57.5	53	40.5	3	6	90	0.00	29.836 
04:40	57.5	57.5	57.5	53	40.5	2	5	90	0.00	29.836 
04:45	57.5	57.5	57.5	54	41.0	2	5	90	0.00	29.834 
04:50	57.5	57.5	57.5	55	41.5	1	4	90	0.00	29.834 
04:55	57.3	57.3	57.3	55	41.3	2	5	90	0.00	29.834 
05:00	57.2	57.2	57.2	55	41.2	1	3	68	0.00	29.840 
05:05	57.2	57.2	57.2	56	41.6	2	4	90	0.00	29.840 
05:10	57.2	57.2	57.2	56	41.6	1	4	112	0.00	29.840 
05:15	57.2	57.2	57.2	56	41.6	1	4	90	0.00	29.838 
05:20	57.2	57.2	57.2	56	41.6	1	7	90	0.00	29.838 
05:25	57.2	57.2	57.2	56	41.6	0	3	90	0.00	29.838 
05:30	57.2	57.2	57.2	55	41.2	1	4	292	0.00	29.878 
05:35	57.3	57.3	57.3	55	41.3	1	3	315	0.00	29.878 
05:40	57.2	57.2	57.2	54	40.7	0	1	135	0.00	29.878 
05:45	57.2	57.2	57.2	54	40.7	0	3	315	0.00	29.869 
05:50	57.2	57.2	57.2	55	41.2	1	3	315	0.00	29.869 
05:55	56.9	56.9	56.9	59	42.7	1	7	225	0.00	29.869 
06:00	56.0	56.0	56.0	63	43.6	1	4	0	0.00	29.885 
06:05	55.0	55.0	55.0	66	43.9	1	9	292	0.00	29.885 
06:10	54.2	54.2	54.2	68	43.9	1	3	292	0.00	29.885 
06:15	53.8	53.8	53.8	69	43.9	0	3	248	0.00	29.892 
06:20	53.5	53.5	53.5	70	44.0	0	3	0	0.00	29.892 
06:25	53.5	53.5	53.5	69	43.6	1	4	315	0.00	29.892 
06:30	53.8	53.8	53.8	69	43.9	0	1	315	0.00	29.893 
06:35	53.9	53.9	53.9	69	44.0	0	2	315	0.00	29.893 
06:40	54.2	54.2	54.2	68	43.9	0	1	315	0.00	29.893 
06:45	54.5	54.5	54.5	67	43.8	0	0	---	0.00	29.892 
06:50	54.8	54.8	54.8	66	43.7	0	1	315	0.00	29.892 
06:55	55.3	55.3	55.3	68	44.9	0	2	315	0.00	29.892 
07:00	55.3	55.3	55.3	71	46.1	0	1	315	0.00	29.874 
07:05	55.3	55.3	55.3	76	47.9	0	1	315	0.01	29.874 
07:10	55.0	55.0	55.0	77	47.9	0	1	315	0.01	29.874 
07:15	54.7	54.7	54.7	78	48.0	0	1	315	0.00	29.889 
07:20	54.4	54.4	54.4	80	48.4	0	1	315	0.01	29.889 
07:25	53.9	53.9	53.9	82	48.5	1	4	68	0.01	29.889 
07:30	53.5	53.5	53.5	84	48.8	0	2	68	0.01	29.877 
07:35	53.1	53.1	53.1	84	48.4	0	1	68	0.00	29.877 
07:40	52.8	52.8	52.8	84	48.1	0	0	---	0.01	29.877 
07:45	52.5	52.5	52.5	85	48.1	0	0	---	0.00	29.864 
07:50	52.3	52.3	52.3	86	48.2	0	0	---	0.00	29.864 
07:55	52.2	52.2	52.2	87	48.4	0	0	---	0.00	29.864 
08:00	52.2	52.2	52.2	88	48.8	0	1	68	0.01	29.884 
08:05	52.3	52.3	52.3	88	48.9	0	1	68	0.00	29.884 
08:10	52.3	52.3	52.3	89	49.2	0	0	---	0.01	29.884 
08:15	52.3	52.3	52.3	89	49.2	0	0	---	0.01	29.896 
08:20	52.3	52.3	52.3	90	49.5	0	1	68	0.02	29.896 
08:25	52.5	52.5	52.5	90	49.7	0	2	68	0.00	29.896 
08:30	52.3	52.3	52.3	90	49.5	0	1	68	0.01	29.915 
08:35	52.3	52.3	52.3	91	49.8	0	2	68	0.01	29.915 
08:40	52.3	52.3	52.3	91	49.8	1	3	68	0.01	29.915 
08:45	52.2	52.2	52.2	91	49.7	1	2	90	0.00	29.896 
08:50	52.0	52.0	52.0	92	49.7	0	1	112	0.00	29.896 
08:55	52.0	52.0	52.0	92	49.7	0	1	112	0.00	29.896 
09:00	52.0	52.0	52.0	92	49.7	0	1	112	0.00	29.892 
09:05	52.2	52.2	52.2	92	49.9	1	3	112	0.00	29.892 
09:10	52.3	52.3	52.3	92	50.0	0	3	112	0.00	29.892 
09:15	52.3	52.3	52.3	92	50.0	3	5	90	0.00	29.851 
09:20	52.3	52.3	52.3	93	50.3	0	3	68	0.00	29.851 
09:25	52.6	52.6	52.6	93	50.6	2	4	68	0.00	29.851 
09:30	52.6	52.6	52.6	93	50.6	1	4	68	0.00	29.842 
09:35	52.8	52.8	52.8	93	50.8	2	4	90	0.00	29.842 
09:40	53.1	53.1	53.1	93	51.1	1	4	68	0.00	29.842 
09:45	53.2	53.2	53.2	92	50.9	2	5	112	0.00	29.839 
09:50	53.3	53.3	53.3	92	51.0	1	3	112	0.00	29.839 
09:55	53.5	53.5	53.5	92	51.2	0	4	90	0.00	29.839 
10:00	53.6	53.6	53.6	92	51.3	0	2	90	0.00	29.853 
10:05	53.8	53.8	53.8	92	51.5	0	2	90	0.00	29.853 
10:10	53.9	53.9	53.9	92	51.6	0	1	90	0.00	29.853 
10:15	54.1	54.1	54.1	92	51.8	0	1	90	0.00	29.877 
10:20	54.2	54.2	54.2	92	51.9	0	1	90	0.00	29.877 
10:25	54.4	54.4	54.4	92	52.1	0	0	---	0.00	29.877 
10:30	54.7	54.7	54.7	92	52.4	0	1	90	0.00	29.884 
10:35	54.8	54.8	54.8	92	52.5	0	1	90	0.00	29.884 
10:40	55.1	55.1	55.1	92	52.8	0	1	90	0.00	29.884 
10:45	55.4	55.4	55.4	91	52.8	1	4	90	0.00	29.896 
10:50	55.7	55.7	55.7	91	53.1	0	2	90	0.00	29.896 
10:55	55.9	55.9	55.9	91	53.3	0	1	90	0.00	29.896 
11:00	56.0	56.0	56.0	91	53.4	1	3	90	0.00	29.891 
11:05	56.0	56.0	56.0	91	53.4	0	2	90	0.00	29.891 
11:10	56.5	56.5	56.5	91	53.9	1	3	90	0.00	29.891 
11:15	56.7	56.7	56.7	91	54.1	0	1	90	0.00	29.890 
11:20	57.0	57.0	57.0	91	54.4	0	1	90	0.00	29.890 
11:25	57.6	57.6	57.6	91	55.0	0	2	90	0.00	29.890 
11:30	58.4	58.4	58.4	91	55.8	0	1	90	0.00	29.876 
11:35	59.2	59.2	59.2	91	56.6	0	1	90	0.00	29.876 
11:40	59.3	59.3	59.3	90	56.4	0	1	90	0.00	29.876 
11:45	59.3	59.3	59.3	88	55.7	0	1	90	0.00	29.854 
11:50	60.2	60.2	60.2	89	56.9	0	2	90	0.00	29.854 
11:55	60.9	60.9	60.9	88	57.3	1	3	90	0.00	29.854 
12:00	61.2	61.2	61.2	85	56.6	1	4	90	0.00	29.829 
12:05	61.5	61.5	61.5	86	57.3	0	2	90	0.00	29.829 
12:10	62.0	62.0	62.0	85	57.4	0	3	90	0.00	29.829 
12:15	62.1	62.1	62.1	84	57.2	0	3	90	0.00	29.825 
12:20	62.3	62.3	62.3	84	57.4	1	3	90	0.00	29.825 
12:25	62.6	62.6	62.6	84	57.7	0	1	90	0.00	29.825 
12:30	62.9	62.9	62.9	84	58.0	0	1	90	0.00	29.838 
12:35	63.1	63.1	63.1	83	57.8	1	3	90	0.00	29.838 
12:40	63.2	63.2	63.2	83	57.9	1	4	90	0.00	29.838 
12:45	63.5	63.5	63.5	85	58.9	1	3	90	0.00	29.818 
12:50	63.7	63.7	63.7	83	58.4	1	4	90	0.00	29.818 
12:55	63.7	63.7	63.7	84	58.8	1	4	90	0.00	29.818 
13:00	63.9	63.9	63.9	83	58.6	1	4	90	0.00	29.828 
13:05	64.0	64.0	64.0	83	58.7	2	4	90	0.00	29.828 
13:10	64.2	64.2	64.2	83	58.9	1	4	90	0.00	29.828 
13:15	64.5	64.5	64.5	83	59.2	0	1	90	0.00	29.838 
13:20	65.0	65.0	65.0	83	59.7	0	5	112	0.00	29.838 
13:25	65.3	65.3	65.3	82	59.7	1	3	112	0.00	29.838 
13:30	65.6	65.6	65.6	83	60.3	0	2	112	0.00	29.841 
13:35	65.8	65.8	65.8	82	60.1	0	3	112	0.00	29.841 
13:40	66.1	66.1	66.1	82	60.4	0	0	---	0.00	29.841 
13:45	66.3	66.3	66.3	82	60.6	0	1	112	0.00	29.842 
13:50	66.3	66.3	66.3	81	60.3	0	0	---	0.00	29.842 
13:55	66.1	66.1	66.1	81	60.1	0	1	112	0.00	29.842 
14:00	66.1	66.1	66.1	81	60.1	0	0	---	0.00	29.841 
14:05	66.1	66.1	66.1	81	60.1	0	0	---	0.00	29.841 
14:10	66.3	66.3	66.3	81	60.3	0	0	---	0.00	29.841 
14:15	66.4	66.4	66.4	81	60.4	0	0	---	0.00	29.840 
14:20	66.4	66.4	66.4	81	60.4	0	0	---	0.00	29.840 
14:25	66.4	66.4	66.4	80	60.0	0	3	112	0.00	29.840 
14:30	66.6	66.6	66.6	81	60.6	0	1	112	0.00	29.844 
14:35	66.8	66.8	66.8	80	60.4	0	2	112	0.00	29.844 
14:40	67.1	67.1	67.1	80	60.7	0	3	112	0.00	29.844 
14:45	67.4	67.4	67.4	78	60.3	1	3	112	0.00	29.850 
14:50	67.6	67.6	67.6	79	60.8	0	1	112	0.00	29.850 
14:55	67.8	67.8	67.8	78	60.7	1	3	112	0.00	29.850 
15:00	67.8	67.8	67.8	76	59.9	1	3	112	0.00	29.855 
15:05	68.6	68.6	68.6	75	60.3	1	3	338	0.00	29.855 
15:10	69.1	69.1	69.1	75	60.8	1	3	338	0.00	29.855 
15:15	69.6	69.6	69.6	73	60.6	1	4	270	0.00	29.841 
15:20	70.1	70.1	70.1	74	61.4	1	3	270	0.00	29.841 
15:25	70.1	70.1	70.1	74	61.4	1	2	270	0.00	29.841 
15:30	70.3	70.3	70.3	72	60.8	1	2	270	0.00	29.836 
15:35	70.8	70.8	70.8	72	61.3	0	2	270	0.00	29.836 
15:40	71.1	71.1	71.1	73	62.0	0	2	315	0.00	29.836 
15:45	71.8	71.8	71.8	71	61.9	1	3	315	0.00	29.826 
15:50	72.3	72.3	72.3	67	60.7	1	4	315	0.00	29.826 
15:55	72.7	72.7	72.7	65	60.2	1	3	315	0.00	29.826 
16:00	72.7	72.7	72.7	65	60.2	1	3	315	0.00	29.820 
16:05	72.8	72.8	72.8	66	60.8	1	3	315	0.00	29.820 
16:10	73.0	73.0	73.0	64	60.1	1	4	248	0.00	29.820 
16:15	73.0	73.0	73.0	62	59.2	1	4	270	0.00	29.813 
16:20	73.2	73.2	73.2	64	60.3	1	3	270	0.00	29.813 
16:25	73.2	73.2	73.2	64	60.3	1	4	338	0.00	29.813 
16:30	73.0	73.0	73.0	63	59.6	1	3	292	0.00	29.807 
16:35	72.8	72.8	72.8	63	59.5	0	2	292	0.00	29.807 
16:40	72.7	72.7	72.7	65	60.2	1	3	292	0.00	29.807 
16:45	72.7	72.7	72.7	64	59.8	1	5	292	0.00	29.793 
16:50	72.3	72.3	72.3	65	59.9	1	6	315	0.00	29.793 
16:55	72.3	72.3	72.3	66	60.3	1	4	292	0.00	29.793 
17:00	72.7	72.7	72.7	64	59.8	1	3	292	0.00	29.801 
17:05	72.7	72.7	72.7	65	60.2	1	4	292	0.00	29.801 
17:10	73.0	73.0	73.0	64	60.1	1	4	292	0.00	29.801 
17:15	73.2	73.2	73.2	61	58.9	1	4	292	0.00	29.793 
17:20	72.8	72.8	72.8	63	59.5	1	4	315	0.00	29.793 
17:25	72.8	72.8	72.8	63	59.5	1	3	315	0.00	29.793 
17:30	72.7	72.7	72.7	64	59.8	1	4	315	0.00	29.790 
17:35	72.3	72.3	72.3	63	59.0	2	5	292	0.00	29.790 
17:40	72.3	72.3	72.3	64	59.4	1	3	292	0.00	29.790 
17:45	72.3	72.3	72.3	64	59.4	1	3	315	0.00	29.787 
17:50	72.5	72.5	72.5	64	59.6	0	4	315	0.00	29.787 
17:55	72.3	72.3	72.3	65	59.9	0	3	315	0.00	29.787 
18:00	72.0	72.0	72.0	65	59.6	0	2	315	0.00	29.781 
18:05	71.3	71.3	71.3	66	59.3	1	4	315	0.00	29.781 
18:10	70.6	70.6	70.6	68	59.5	0	2	135	0.00	29.781 
18:15	70.4	70.4	70.4	69	59.7	0	3	112	0.00	29.780 
18:20	70.3	70.3	70.3	69	59.6	0	3	90	0.00	29.780 
18:25	70.1	70.1	70.1	68	59.0	1	3	112	0.00	29.780 
18:30	70.1	70.1	70.1	69	59.4	0	2	112	0.00	29.784 
18:35	70.1	70.1	70.1	69	59.4	1	4	112	0.00	29.784 
18:40	70.3	70.3	70.3	69	59.6	1	3	112	0.00	29.784 
18:45	70.3	70.3	70.3	69	59.6	0	1	112	0.00	29.781 
18:50	70.1	70.1	70.1	68	59.0	1	2	112	0.00	29.781 
18:55	70.1	70.1	70.1	69	59.4	0	1	112	0.00	29.781 
19:00	70.1	70.1	70.1	69	59.4	0	2	112	0.00	29.780 
19:05	70.1	70.1	70.1	69	59.4	0	3	112	0.00	29.780 
19:10	70.1	70.1	70.1	69	59.4	1	3	112	0.00	29.780 
19:15	70.1	70.1	70.1	69	59.4	0	1	112	0.00	29.786 
19:20	69.9	69.9	69.9	69	59.3	0	3	112	0.00	29.786 
19:25	69.8	69.8	69.8	70	59.6	0	3	112	0.00	29.786 
19:30	69.6	69.6	69.6	70	59.4	0	2	112	0.00	29.792 
19:35	69.6	69.6	69.6	72	60.2	0	1	112	0.00	29.792 
19:40	69.4	69.4	69.4	72	60.0	0	3	112	0.00	29.792 
19:45	69.1	69.1	69.1	71	59.3	0	1	112	0.00	29.797 
19:50	68.9	68.9	68.9	71	59.1	0	2	112	0.00	29.797 
19:55	68.6	68.6	68.6	72	59.2	0	3	112	0.00	29.797 
20:00	68.4	68.4	68.4	73	59.4	0	3	112	0.00	29.798 
20:05	68.3	68.3	68.3	73	59.3	0	1	112	0.00	29.798 
20:10	68.1	68.1	68.1	74	59.5	0	2	112	0.00	29.798 
20:15	68.1	68.1	68.1	75	59.9	0	0	---	0.00	29.798 
20:20	67.9	67.9	67.9	75	59.7	0	1	112	0.00	29.798 
20:25	67.8	67.8	67.8	75	59.6	0	2	112	0.00	29.798 
20:30	67.8	67.8	67.8	75	59.6	0	0	---	0.00	29.799 
20:35	67.6	67.6	67.6	75	59.4	0	0	---	0.00	29.799 
20:40	67.4	67.4	67.4	75	59.2	0	0	---	0.00	29.799 
20:45	67.4	67.4	67.4	75	59.2	0	0	---	0.00	29.801 
20:50	67.4	67.4	67.4	75	59.2	0	0	---	0.00	29.801 
20:55	67.3	67.3	67.3	76	59.5	0	0	---	0.00	29.801 
21:00	67.3	67.3	67.3	76	59.5	0	0	---	0.00	29.803 
21:05	67.3	67.3	67.3	76	59.5	0	0	---	0.00	29.803 
21:10	67.1	67.1	67.1	76	59.3	0	0	---	0.00	29.803 
21:15	67.1	67.1	67.1	76	59.3	0	2	112	0.00	29.804 
21:20	66.9	66.9	66.9	76	59.1	0	3	112	0.00	29.804 
21:25	66.9	66.9	66.9	76	59.1	0	1	112	0.00	29.804 
21:30	66.9	66.9	66.9	76	59.1	0	1	112	0.00	29.807 
21:35	66.8	66.8	66.8	77	59.3	0	0	---	0.00	29.807 
21:40	66.8	66.8	66.8	77	59.3	0	0	---	0.00	29.807 
21:45	66.6	66.6	66.6	77	59.2	0	1	112	0.00	29.807 
21:50	66.6	66.6	66.6	78	59.5	0	0	---	0.00	29.807 
21:55	66.4	66.4	66.4	78	59.3	0	0	---	0.00	29.807 
22:00	66.4	66.4	66.4	78	59.3	0	0	---	0.00	29.805 
22:05	66.4	66.4	66.4	78	59.3	0	1	112	0.00	29.805 
22:10	66.3	66.3	66.3	79	59.6	0	1	112	0.00	29.805 
22:15	66.3	66.3	66.3	79	59.6	0	0	---	0.00	29.804 
22:20	66.1	66.1	66.1	79	59.4	0	2	112	0.00	29.804 
22:25	66.1	66.1	66.1	79	59.4	0	1	112	0.00	29.804 
22:30	66.1	66.1	66.1	80	59.7	0	1	112	0.00	29.812 
22:35	66.0	66.0	66.0	80	59.6	0	2	112	0.00	29.812 
22:40	66.0	66.0	66.0	80	59.6	0	2	22	0.00	29.812 
22:45	65.8	65.8	65.8	80	59.5	0	2	22	0.00	29.812 
22:50	65.8	65.8	65.8	80	59.5	0	2	22	0.00	29.812 
22:55	65.6	65.6	65.6	80	59.3	1	3	270	0.00	29.812 
23:00	65.6	65.6	65.6	80	59.3	2	5	270	0.00	29.812 
23:05	65.0	65.0	65.0	80	58.7	2	5	315	0.00	29.812 
23:10	64.0	64.0	64.0	81	58.0	2	6	292	0.00	29.812 
23:15	63.4	63.4	63.4	82	57.8	1	3	315	0.00	29.811 
23:20	63.1	63.1	63.1	83	57.8	1	3	315	0.00	29.811 
23:25	62.7	62.7	62.7	84	57.8	1	4	292	0.00	29.811 
23:30	62.4	62.4	62.4	85	57.8	1	4	292	0.00	29.811 
23:35	62.1	62.1	62.1	85	57.5	1	4	292	0.00	29.811 
23:40	61.8	61.8	61.8	86	57.6	1	3	292	0.00	29.811 
23:45	61.3	61.3	61.3	86	57.1	1	4	292	0.00	29.809 
23:50	60.9	60.9	60.9	87	57.0	1	4	292	0.00	29.809 
23:55	60.5	60.5	60.5	87	56.6	2	4	292	0.00	29.809 

CoCoRaHS
IN-AL-39
A2 Web Hosting
Creative Commons License
GoDaddy
search engine by freefind advanced

loaded 2018-11-17 13:59:27 • last modified 2010-11-18 10:43:29
Privacy PolicyDisclaimer
• wx.awcolley.com is powered by PmWiki v.2002016 •
• all content (unless otherwise noted) © 2018 A W Colley